createdAt,value
2018-05-26T00:00:02.904Z,14.30
2018-05-26T00:02:30.366Z,10.87
2018-05-26T00:04:57.833Z,12.93
2018-05-26T00:07:26.063Z,12.70
2018-05-26T00:09:53.542Z,15.33
2018-05-26T00:12:21.011Z,14.43
2018-05-26T00:14:48.481Z,12.70
2018-05-26T00:17:16.709Z,12.23
2018-05-26T00:19:44.174Z,17.83
2018-05-26T00:22:11.630Z,12.20
2018-05-26T00:24:39.114Z,12.37
2018-05-26T00:27:06.582Z,14.47
2018-05-26T00:29:34.072Z,12.67
2018-05-26T00:32:01.538Z,11.97
2018-05-26T00:34:29.012Z,12.77
2018-05-26T00:36:56.478Z,13.73
2018-05-26T00:39:23.966Z,12.10
2018-05-26T00:41:52.194Z,12.00
2018-05-26T00:44:19.683Z,15.37
2018-05-26T00:46:47.148Z,12.87
2018-05-26T00:49:14.622Z,12.67
2018-05-26T00:51:42.850Z,13.07
2018-05-26T00:54:10.327Z,17.47
2018-05-26T00:56:37.785Z,12.77
2018-05-26T00:59:05.280Z,14.23
2018-05-26T01:01:32.753Z,17.10
2018-05-26T01:04:00.217Z,15.37
2018-05-26T01:06:27.686Z,14.03
2018-05-26T01:08:55.154Z,12.60
2018-05-26T01:11:22.635Z,14.27
2018-05-26T01:13:50.103Z,13.10
2018-05-26T01:16:17.577Z,13.90
2018-05-26T01:18:45.043Z,15.37
2018-05-26T01:21:12.514Z,14.30
2018-05-26T01:23:39.982Z,13.00
2018-05-26T01:26:07.458Z,11.97
2018-05-26T01:28:34.914Z,11.17
2018-05-26T01:31:02.390Z,12.80
2018-05-26T01:33:30.150Z,11.80
2018-05-26T01:35:57.617Z,10.83
2018-05-26T01:38:25.087Z,11.83
2018-05-26T01:40:53.322Z,15.80
2018-05-26T01:43:20.898Z,13.50
2018-05-26T01:45:48.381Z,11.67
2018-05-26T01:48:15.833Z,11.47
2018-05-26T01:50:44.071Z,14.93
2018-05-26T01:53:11.533Z,13.40
2018-05-26T01:55:38.997Z,13.90
2018-05-26T01:58:06.454Z,12.87
2018-05-26T02:00:33.925Z,12.23
2018-05-26T02:03:01.385Z,14.13
2018-05-26T02:05:28.870Z,13.23
2018-05-26T02:07:56.331Z,18.63
2018-05-26T02:10:23.789Z,12.30
2018-05-26T02:12:51.266Z,13.73
2018-05-26T02:15:18.728Z,13.47
2018-05-26T02:17:46.201Z,15.83
2018-05-26T02:20:13.671Z,12.60
2018-05-26T02:22:41.143Z,13.63
2018-05-26T02:25:08.610Z,13.80
2018-05-26T02:27:36.850Z,11.43
2018-05-26T02:30:04.314Z,11.07
2018-05-26T02:32:31.783Z,12.87
2018-05-26T02:34:59.243Z,16.90
2018-05-26T02:37:26.715Z,12.17
2018-05-26T02:39:54.182Z,11.27
2018-05-26T02:42:21.659Z,11.43
2018-05-26T02:44:49.126Z,14.20
2018-05-26T02:47:16.598Z,12.33
2018-05-26T02:49:44.070Z,16.30
2018-05-26T02:52:11.546Z,15.27
2018-05-26T02:54:39.011Z,14.47
2018-05-26T02:57:07.249Z,11.80
2018-05-26T02:59:34.725Z,11.27
2018-05-26T03:02:02.215Z,12.97
2018-05-26T03:04:35.246Z,12.30
2018-05-26T03:07:08.542Z,12.63
2018-05-26T03:09:41.622Z,13.63
2018-05-26T03:12:14.789Z,13.13
2018-05-26T03:14:46.707Z,12.43
2018-05-26T03:17:19.899Z,12.60
2018-05-26T03:19:47.361Z,13.00
2018-05-26T03:22:14.831Z,12.83
2018-05-26T03:24:42.316Z,13.67
2018-05-26T03:27:09.779Z,16.53
2018-05-26T03:29:37.250Z,13.03
2018-05-26T03:32:04.722Z,11.97
2018-05-26T03:34:32.206Z,11.40
2018-05-26T03:37:00.434Z,14.80
2018-05-26T03:39:27.910Z,15.57
2018-05-26T03:41:55.568Z,13.23
2018-05-26T03:44:23.038Z,14.43
2018-05-26T03:46:50.510Z,15.43
2018-05-26T03:49:17.982Z,11.87
2018-05-26T03:51:45.445Z,16.47
2018-05-26T03:54:12.927Z,14.23
2018-05-26T03:56:52.117Z,11.60
2018-05-26T03:59:22.179Z,14.50
2018-05-26T04:01:49.639Z,13.83
2018-05-26T04:04:17.236Z,12.30
2018-05-26T04:06:44.698Z,11.63
2018-05-26T04:09:12.182Z,17.00
2018-05-26T04:11:39.641Z,12.90
2018-05-26T04:14:07.095Z,12.47
2018-05-26T04:16:34.575Z,14.03
2018-05-26T04:19:02.043Z,14.53
2018-05-26T04:21:29.514Z,14.40
2018-05-26T04:23:56.974Z,17.83
2018-05-26T04:26:24.445Z,13.60
2018-05-26T04:28:51.909Z,14.03
2018-05-26T04:31:19.390Z,13.30
2018-05-26T04:33:47.623Z,14.23
2018-05-26T04:36:15.103Z,14.00
2018-05-26T04:38:42.562Z,13.10
2018-05-26T04:41:10.759Z,13.40
2018-05-26T04:43:38.223Z,15.67
2018-05-26T04:46:05.703Z,14.20
2018-05-26T04:48:33.163Z,21.43
2018-05-26T04:51:00.642Z,14.20
2018-05-26T04:53:28.110Z,19.07
2018-05-26T04:55:55.587Z,15.63
2018-05-26T04:58:23.046Z,15.30
2018-05-26T05:00:50.515Z,16.97
2018-05-26T05:03:17.974Z,14.90
2018-05-26T05:05:45.466Z,14.27
2018-05-26T05:08:12.916Z,16.27
2018-05-26T05:10:40.406Z,14.73
2018-05-26T05:13:07.875Z,14.13
2018-05-26T05:15:35.342Z,14.40
2018-05-26T05:18:02.881Z,15.87
2018-05-26T05:20:30.350Z,16.03
2018-05-26T05:22:58.593Z,16.53
2018-05-26T05:25:26.096Z,22.37
2018-05-26T05:27:53.570Z,17.63
2018-05-26T05:30:21.029Z,18.40
2018-05-26T05:32:48.502Z,15.77
2018-05-26T05:35:15.962Z,18.63
2018-05-26T05:37:43.442Z,15.97
2018-05-26T05:40:10.914Z,15.93
2018-05-26T05:42:38.385Z,16.67
2018-05-26T05:45:06.623Z,17.97
2018-05-26T05:47:34.096Z,17.17
2018-05-26T05:50:01.562Z,17.47
2018-05-26T05:52:29.038Z,16.47
2018-05-26T05:54:56.506Z,19.60
2018-05-26T05:57:23.987Z,20.23
2018-05-26T05:59:51.449Z,18.43
2018-05-26T06:02:18.931Z,16.73
2018-05-26T06:04:46.519Z,16.50
2018-05-26T06:07:13.990Z,20.00
2018-05-26T06:09:41.462Z,17.30
2018-05-26T06:12:09.081Z,17.47
2018-05-26T06:14:36.554Z,14.83
2018-05-26T06:17:05.122Z,17.00
2018-05-26T06:19:32.892Z,14.60
2018-05-26T06:22:00.523Z,16.73
2018-05-26T06:24:28.120Z,14.33
2018-05-26T06:26:55.867Z,13.30
2018-05-26T06:29:23.632Z,14.33
2018-05-26T06:31:51.160Z,11.87
2018-05-26T06:34:18.858Z,12.23
2018-05-26T06:36:46.614Z,16.37
2018-05-26T06:39:14.384Z,11.90
2018-05-26T06:41:42.013Z,15.17
2018-05-26T06:44:09.498Z,12.67
2018-05-26T06:46:36.983Z,11.50
2018-05-26T06:49:04.467Z,11.87
2018-05-26T06:51:31.944Z,15.30
2018-05-26T06:53:59.426Z,11.20
2018-05-26T06:56:27.191Z,10.93
2018-05-26T06:58:54.665Z,12.50
2018-05-26T07:01:22.415Z,8.73
2018-05-26T07:03:50.178Z,10.00
2018-05-26T07:06:17.631Z,9.70
2018-05-26T07:08:45.392Z,9.00
2018-05-26T07:11:13.163Z,8.80
2018-05-26T07:13:40.922Z,9.77
2018-05-26T07:16:08.574Z,8.20
2018-05-26T07:18:36.138Z,8.90
2018-05-26T07:21:03.786Z,12.23
2018-05-26T07:23:31.268Z,8.67
2018-05-26T07:25:58.738Z,12.17
2018-05-26T07:28:26.204Z,9.90
2018-05-26T07:30:53.739Z,10.07
2018-05-26T07:33:21.383Z,11.53
2018-05-26T07:35:48.872Z,8.27
2018-05-26T07:38:16.342Z,11.37
2018-05-26T07:40:43.815Z,12.50
2018-05-26T07:43:11.279Z,8.77
2018-05-26T07:45:38.753Z,11.57
2018-05-26T07:48:06.418Z,9.60
2018-05-26T07:50:33.919Z,13.23
2018-05-26T07:53:01.459Z,7.83
2018-05-26T07:55:29.221Z,8.07
2018-05-26T07:57:56.990Z,8.83
2018-05-26T08:00:24.784Z,17.63
2018-05-26T08:02:53.135Z,12.87
2018-05-26T08:05:20.828Z,8.50
2018-05-26T08:07:48.360Z,8.43
2018-05-26T08:10:16.011Z,9.33
2018-05-26T08:12:43.499Z,11.33
2018-05-26T08:15:10.967Z,9.43
2018-05-26T08:17:38.431Z,8.40
2018-05-26T08:20:05.894Z,11.10
2018-05-26T08:22:33.374Z,8.97
2018-05-26T08:25:00.829Z,7.30
2018-05-26T08:27:28.307Z,6.90
2018-05-26T08:29:55.771Z,12.50
2018-05-26T08:32:23.238Z,7.83
2018-05-26T08:34:50.702Z,7.60
2018-05-26T08:37:18.171Z,8.10
2018-05-26T08:39:45.634Z,8.27
2018-05-26T08:42:13.120Z,6.70
2018-05-26T08:44:40.743Z,7.70
2018-05-26T08:47:08.270Z,8.40
2018-05-26T08:49:37.446Z,7.47
2018-05-26T08:52:04.916Z,6.73
2018-05-26T08:54:32.374Z,8.60
2018-05-26T08:56:59.854Z,7.00
2018-05-26T08:59:27.317Z,6.57
2018-05-26T09:01:54.804Z,7.77
2018-05-26T09:04:22.263Z,8.33
2018-05-26T09:06:49.730Z,7.40
2018-05-26T09:09:17.205Z,7.60
2018-05-26T09:11:44.662Z,6.37
2018-05-26T09:14:12.447Z,10.87
2018-05-26T09:16:39.906Z,6.67
2018-05-26T09:19:08.892Z,7.67
2018-05-26T09:21:36.350Z,5.63
2018-05-26T09:24:04.003Z,4.93
2018-05-26T09:26:31.482Z,6.47
2018-05-26T09:28:58.942Z,6.83
2018-05-26T09:31:26.397Z,7.70
2018-05-26T09:33:53.864Z,7.93
2018-05-26T09:36:21.323Z,6.43
2018-05-26T09:38:48.790Z,6.00
2018-05-26T09:41:16.246Z,7.10
2018-05-26T09:43:43.801Z,5.37
2018-05-26T09:46:12.730Z,6.07
2018-05-26T09:48:40.218Z,6.37
2018-05-26T09:51:07.987Z,9.53
2018-05-26T09:53:35.744Z,4.97
2018-05-26T09:56:03.248Z,6.60
2018-05-26T09:58:31.446Z,5.07
2018-05-26T10:00:58.910Z,10.87
2018-05-26T10:03:26.500Z,6.00
2018-05-26T10:05:54.139Z,5.83
2018-05-26T10:08:21.626Z,7.10
2018-05-26T10:10:49.174Z,4.67
2018-05-26T10:13:16.627Z,4.67
2018-05-26T10:15:44.108Z,6.03
2018-05-26T10:18:11.760Z,6.47
2018-05-26T10:20:39.302Z,6.17
2018-05-26T10:23:06.762Z,5.40
2018-05-26T10:25:34.423Z,4.70
2018-05-26T10:28:01.988Z,4.40
2018-05-26T10:30:29.450Z,5.60
2018-05-26T10:32:57.683Z,5.87
2018-05-26T10:35:25.199Z,12.57
2018-05-26T10:37:52.659Z,5.03
2018-05-26T10:40:20.191Z,10.00
2018-05-26T10:42:47.950Z,5.80
2018-05-26T10:45:15.415Z,6.47
2018-05-26T10:47:43.667Z,4.43
2018-05-26T10:50:11.242Z,5.40
2018-05-26T10:52:38.698Z,4.17
2018-05-26T10:55:06.350Z,5.13
2018-05-26T10:57:33.806Z,4.80
2018-05-26T11:00:01.296Z,5.53
2018-05-26T11:02:28.754Z,4.47
2018-05-26T11:04:56.233Z,7.23
2018-05-26T11:07:23.746Z,6.57
2018-05-26T11:09:51.510Z,5.63
2018-05-26T11:12:18.987Z,5.07
2018-05-26T11:14:46.745Z,5.00
2018-05-26T11:17:15.922Z,10.70
2018-05-26T11:19:43.398Z,5.27
2018-05-26T11:22:10.954Z,5.03
2018-05-26T11:24:38.831Z,4.97
2018-05-26T11:27:06.394Z,4.70
2018-05-26T11:29:33.867Z,5.33
2018-05-26T11:32:01.394Z,4.10
2018-05-26T11:34:28.882Z,4.57
2018-05-26T11:36:56.361Z,8.53
2018-05-26T11:39:24.662Z,4.50
2018-05-26T11:41:52.126Z,4.40
2018-05-26T11:44:21.090Z,5.67
2018-05-26T11:46:48.557Z,5.47
2018-05-26T11:49:16.778Z,5.50
2018-05-26T11:51:45.019Z,5.30
2018-05-26T11:54:12.498Z,4.73
2018-05-26T11:56:41.470Z,5.50
2018-05-26T11:59:09.128Z,5.23
2018-05-26T12:01:36.710Z,4.43
2018-05-26T12:04:04.170Z,4.17
2018-05-26T12:06:31.626Z,7.53
2018-05-26T12:08:59.274Z,4.13
2018-05-26T12:11:26.812Z,4.47
2018-05-26T12:13:54.484Z,5.27
2018-05-26T12:16:21.941Z,4.10
2018-05-26T12:18:49.519Z,4.63
2018-05-26T12:21:18.507Z,6.30
2018-05-26T12:23:46.386Z,4.33
2018-05-26T12:26:13.914Z,4.03
2018-05-26T12:28:41.419Z,5.37
2018-05-26T12:31:08.874Z,5.13
2018-05-26T12:33:36.409Z,4.30
2018-05-26T12:36:05.430Z,3.90
2018-05-26T12:38:33.050Z,4.07
2018-05-26T12:41:00.619Z,4.40
2018-05-26T12:43:29.923Z,4.97
2018-05-26T12:45:57.566Z,5.00
2018-05-26T12:48:25.134Z,4.07
2018-05-26T12:50:52.773Z,3.70
2018-05-26T12:53:20.363Z,3.70
2018-05-26T12:55:49.354Z,4.53
2018-05-26T12:58:16.986Z,6.13
2018-05-26T13:00:44.570Z,4.23
2018-05-26T13:03:13.878Z,5.93
2018-05-26T13:05:41.555Z,6.97
2018-05-26T13:08:09.017Z,4.40
2018-05-26T13:10:36.499Z,4.37
2018-05-26T13:13:04.009Z,4.53
2018-05-26T13:15:33.306Z,4.53
2018-05-26T13:18:02.602Z,3.90
2018-05-26T13:20:30.358Z,4.57
2018-05-26T13:22:58.135Z,4.23
2018-05-26T13:25:27.134Z,3.70
2018-05-26T13:27:55.359Z,3.63
2018-05-26T13:30:22.970Z,3.63
2018-05-26T13:32:50.727Z,5.03
2018-05-26T13:35:19.759Z,3.50
2018-05-26T13:37:47.390Z,3.50
2018-05-26T13:40:14.936Z,3.30
2018-05-26T13:42:42.579Z,4.00
2018-05-26T13:45:10.042Z,4.37
2018-05-26T13:47:37.618Z,4.13
2018-05-26T13:50:06.610Z,5.67
2018-05-26T13:52:35.790Z,3.90
2018-05-26T13:55:03.292Z,3.90
2018-05-26T13:57:30.718Z,3.60
2018-05-26T13:59:58.179Z,6.13
2018-05-26T14:02:25.689Z,3.40
2018-05-26T14:04:53.128Z,4.03
2018-05-26T14:07:20.637Z,3.40
2018-05-26T14:09:48.402Z,3.80
2018-05-26T14:12:15.871Z,4.77
2018-05-26T14:14:44.834Z,3.97
2018-05-26T14:17:12.335Z,4.10
2018-05-26T14:19:40.082Z,4.53
2018-05-26T14:22:09.058Z,3.60
2018-05-26T14:24:36.522Z,3.47
2018-05-26T14:27:03.990Z,3.80
2018-05-26T14:29:32.986Z,5.17
2018-05-26T14:32:01.973Z,4.93
2018-05-26T14:34:29.748Z,3.63
2018-05-26T14:36:57.217Z,3.70
2018-05-26T14:39:24.831Z,3.67
2018-05-26T14:41:52.338Z,3.80
2018-05-26T14:44:19.789Z,3.87
2018-05-26T14:46:47.259Z,3.77
2018-05-26T14:49:14.714Z,7.97
2018-05-26T14:51:42.180Z,4.00
2018-05-26T14:54:09.699Z,4.73
2018-05-26T14:56:38.674Z,3.77
2018-05-26T14:59:06.151Z,3.47
2018-05-26T15:01:35.454Z,3.73
2018-05-26T15:04:04.418Z,3.80
2018-05-26T15:06:31.910Z,3.50
2018-05-26T15:08:59.548Z,4.37
2018-05-26T15:11:27.032Z,3.70
2018-05-26T15:13:54.498Z,7.97
2018-05-26T15:16:21.959Z,3.90
2018-05-26T15:18:49.498Z,3.70
2018-05-26T15:21:17.139Z,4.33
2018-05-26T15:23:44.642Z,4.33
2018-05-26T15:26:12.159Z,4.13
2018-05-26T15:28:39.846Z,4.37
2018-05-26T15:31:07.403Z,5.17
2018-05-26T15:33:35.038Z,3.60
2018-05-26T15:36:02.615Z,4.40
2018-05-26T15:38:31.599Z,4.67
2018-05-26T15:40:59.249Z,9.07
2018-05-26T15:43:26.750Z,4.70
2018-05-26T15:45:54.216Z,4.40
2018-05-26T15:48:21.739Z,4.23
2018-05-26T15:50:49.198Z,4.47
2018-05-26T15:53:16.972Z,4.40
2018-05-26T15:55:44.498Z,4.40
2018-05-26T15:58:12.094Z,7.63
2018-05-26T16:00:39.622Z,4.13
2018-05-26T16:03:07.290Z,4.33
2018-05-26T16:05:34.773Z,4.13
2018-05-26T16:08:03.245Z,4.17
2018-05-26T16:10:30.710Z,4.43
2018-05-26T16:12:58.165Z,4.00
2018-05-26T16:15:25.641Z,8.87
2018-05-26T16:17:53.091Z,5.00
2018-05-26T16:20:20.566Z,4.20
2018-05-26T16:22:48.015Z,5.17
2018-05-26T16:25:15.483Z,4.00
2018-05-26T16:27:42.940Z,5.23
2018-05-26T16:30:10.409Z,4.83
2018-05-26T16:32:37.867Z,5.70
2018-05-26T16:35:05.362Z,5.50
2018-05-26T16:37:32.846Z,5.63
2018-05-26T16:40:01.079Z,4.00
2018-05-26T16:42:28.545Z,4.27
2018-05-26T16:44:56.010Z,4.97
2018-05-26T16:47:23.475Z,5.17
2018-05-26T16:49:50.934Z,6.27
2018-05-26T16:52:18.386Z,4.20
2018-05-26T16:54:45.871Z,5.70
2018-05-26T16:57:13.331Z,4.13
2018-05-26T16:59:40.802Z,6.33
2018-05-26T17:02:08.269Z,4.10
2018-05-26T17:04:35.722Z,4.20
2018-05-26T17:07:03.190Z,4.57
2018-05-26T17:09:30.675Z,3.70
2018-05-26T17:11:58.121Z,5.23
2018-05-26T17:14:25.621Z,4.30
2018-05-26T17:16:53.858Z,4.33
2018-05-26T17:19:21.310Z,4.90
2018-05-26T17:21:48.774Z,5.03
2018-05-26T17:24:16.229Z,4.37
2018-05-26T17:26:43.713Z,4.53
2018-05-26T17:29:11.174Z,5.80
2018-05-26T17:31:38.643Z,4.67
2018-05-26T17:34:06.090Z,4.53
2018-05-26T17:36:33.756Z,5.80
2018-05-26T17:39:01.218Z,6.50
2018-05-26T17:41:28.686Z,4.13
2018-05-26T17:43:56.148Z,5.83
2018-05-26T17:46:23.603Z,4.87
2018-05-26T17:48:51.130Z,5.93
2018-05-26T17:51:18.578Z,4.53
2018-05-26T17:53:47.550Z,4.40
2018-05-26T17:56:15.202Z,4.47
2018-05-26T17:58:42.679Z,4.30
2018-05-26T18:01:10.126Z,5.80
2018-05-26T18:03:37.617Z,6.47
2018-05-26T18:06:05.162Z,4.40
2018-05-26T18:08:34.142Z,22.43
2018-05-26T18:11:01.914Z,6.37
2018-05-26T18:13:29.388Z,10.67
2018-05-26T18:15:57.161Z,6.67
2018-05-26T18:18:24.626Z,5.57
2018-05-26T18:20:52.210Z,4.63
2018-05-26T18:23:19.814Z,5.87
2018-05-26T18:25:47.270Z,5.03
2018-05-26T18:28:14.866Z,4.50
2018-05-26T18:30:43.290Z,6.80
2018-05-26T18:33:10.828Z,4.60
2018-05-26T18:35:38.282Z,4.90
2018-05-26T18:38:05.791Z,4.87
2018-05-26T18:40:33.426Z,4.63
2018-05-26T18:43:00.891Z,6.70
2018-05-26T18:45:28.462Z,5.70
2018-05-26T18:47:57.549Z,5.23
2018-05-26T18:50:25.178Z,6.43
2018-05-26T18:52:52.835Z,5.30
2018-05-26T18:55:20.450Z,5.00
2018-05-26T18:57:49.622Z,5.03
2018-05-26T19:00:17.081Z,7.90
2018-05-26T19:02:44.555Z,16.80
2018-05-26T19:05:12.030Z,15.10
2018-05-26T19:07:39.482Z,10.50
2018-05-26T19:10:07.035Z,8.50
2018-05-26T19:12:34.790Z,8.17
2018-05-26T19:15:03.771Z,7.60
2018-05-26T19:17:31.431Z,7.63
2018-05-26T19:19:58.923Z,6.50
2018-05-26T19:22:26.463Z,5.43
2018-05-26T19:24:55.651Z,7.10
2018-05-26T19:27:23.148Z,5.37
2018-05-26T19:29:50.679Z,6.70
2018-05-26T19:32:19.982Z,11.03
2018-05-26T19:34:48.234Z,11.20
2018-05-26T19:37:15.725Z,7.67
2018-05-26T19:39:43.269Z,7.07
2018-05-26T19:42:12.246Z,6.70
2018-05-26T19:44:40.037Z,6.60
2018-05-26T19:47:09.322Z,9.33
2018-05-26T19:49:36.977Z,7.13
2018-05-26T19:52:04.742Z,9.10
2018-05-26T19:54:32.207Z,10.53
2018-05-26T19:56:59.674Z,8.10
2018-05-26T19:59:27.171Z,8.53
2018-05-26T20:01:54.647Z,8.97
2018-05-26T20:04:22.138Z,7.07
2018-05-26T20:06:49.614Z,11.27
2018-05-26T20:09:17.233Z,7.40
2018-05-26T20:11:44.731Z,8.00
2018-05-26T20:14:12.281Z,8.93
2018-05-26T20:16:41.266Z,7.10
2018-05-26T20:19:09.064Z,27.37
2018-05-26T20:21:36.678Z,10.37
2018-05-26T20:24:04.254Z,7.30
2018-05-26T20:26:33.223Z,8.13
2018-05-26T20:29:01.018Z,6.43
2018-05-26T20:31:28.483Z,7.77
2018-05-26T20:33:55.951Z,7.00
2018-05-26T20:36:23.595Z,7.40
2018-05-26T20:38:51.066Z,7.33
2018-05-26T20:41:18.606Z,6.70
2018-05-26T20:43:46.844Z,7.07
2018-05-26T20:46:14.370Z,7.83
2018-05-26T20:48:41.894Z,7.23
2018-05-26T20:51:10.288Z,6.83
2018-05-26T20:53:38.035Z,7.73
2018-05-26T20:56:05.676Z,9.03
2018-05-26T20:58:33.174Z,7.40
2018-05-26T21:01:00.720Z,9.57
2018-05-26T21:03:29.694Z,7.00
2018-05-26T21:05:57.155Z,7.60
2018-05-26T21:08:24.812Z,8.97
2018-05-26T21:10:52.399Z,7.87
2018-05-26T21:13:20.022Z,9.03
2018-05-26T21:15:47.602Z,7.03
2018-05-26T21:18:15.058Z,8.50
2018-05-26T21:20:42.727Z,7.90
2018-05-26T21:23:10.175Z,6.97
2018-05-26T21:25:37.647Z,9.90
2018-05-26T21:28:05.102Z,8.90
2018-05-26T21:30:32.578Z,11.07
2018-05-26T21:33:00.032Z,10.17
2018-05-26T21:35:27.493Z,7.47
2018-05-26T21:37:55.022Z,7.70
2018-05-26T21:40:22.663Z,9.70
2018-05-26T21:42:50.182Z,7.67
2018-05-26T21:45:17.698Z,7.43
2018-05-26T21:47:45.156Z,7.60
2018-05-26T21:50:12.746Z,9.67
2018-05-26T21:52:40.374Z,7.80
2018-05-26T21:55:08.143Z,9.50
2018-05-26T21:57:35.905Z,9.20
2018-05-26T22:00:03.383Z,8.67
2018-05-26T22:02:31.122Z,10.53
2018-05-26T22:04:58.615Z,9.83
2018-05-26T22:07:26.675Z,9.27
2018-05-26T22:09:54.207Z,8.07
2018-05-26T22:12:21.881Z,7.30
2018-05-26T22:14:49.341Z,7.53
2018-05-26T22:17:18.137Z,6.93
2018-05-26T22:19:46.362Z,8.57
2018-05-26T22:22:13.840Z,8.10
2018-05-26T22:24:41.488Z,9.87
2018-05-26T22:27:08.986Z,9.40
2018-05-26T22:29:36.443Z,8.10
2018-05-26T22:32:03.989Z,7.97
2018-05-26T22:34:31.757Z,7.93
2018-05-26T22:36:59.530Z,8.23
2018-05-26T22:39:27.282Z,8.60
2018-05-26T22:41:55.048Z,8.20
2018-05-26T22:44:22.801Z,9.50
2018-05-26T22:46:50.454Z,7.90
2018-05-26T22:49:18.949Z,9.70
2018-05-26T22:51:46.602Z,8.23
2018-05-26T22:54:14.078Z,11.77
2018-05-26T22:56:41.542Z,8.73
2018-05-26T22:59:09.082Z,8.17
2018-05-26T23:01:36.841Z,8.80
2018-05-26T23:04:04.431Z,8.27
2018-05-26T23:06:32.865Z,9.07
2018-05-26T23:09:00.431Z,8.33
2018-05-26T23:11:27.882Z,10.90
2018-05-26T23:13:55.355Z,8.53
2018-05-26T23:16:22.809Z,9.63
2018-05-26T23:18:50.461Z,10.00
2018-05-26T23:21:17.945Z,9.40
2018-05-26T23:23:45.418Z,10.97
2018-05-26T23:26:12.878Z,11.30
2018-05-26T23:28:40.350Z,10.57
2018-05-26T23:31:07.818Z,11.03
2018-05-26T23:33:35.299Z,14.40
2018-05-26T23:36:02.781Z,11.60
2018-05-26T23:38:30.546Z,12.53
2018-05-26T23:40:58.185Z,10.43
2018-05-26T23:43:25.674Z,9.97
2018-05-26T23:45:53.131Z,8.83
2018-05-26T23:48:20.679Z,9.03
2018-05-26T23:50:48.346Z,8.47
2018-05-26T23:53:15.815Z,8.37
2018-05-26T23:55:43.357Z,9.47
2018-05-26T23:58:10.811Z,9.27
